sensor_id;sensor_type;location;lat;lon;timestamp;pressure;altitude;pressure_sealevel;temperature;humidity
2184;BME280;1098;48.940;8.962;2023-03-03T00:02:57;98748.94;;;3.54;100.00
2184;BME280;1098;48.940;8.962;2023-03-03T00:05:19;98745.19;;;3.71;100.00
2184;BME280;1098;48.940;8.962;2023-03-03T00:07:47;98743.78;;;3.21;100.00
2184;BME280;1098;48.940;8.962;2023-03-03T00:10:15;98740.06;;;3.61;100.00
2184;BME280;1098;48.940;8.962;2023-03-03T00:12:45;98746.69;;;3.42;100.00
2184;BME280;1098;48.940;8.962;2023-03-03T00:15:16;98743.53;;;3.08;100.00
2184;BME280;1098;48.940;8.962;2023-03-03T00:17:45;98740.72;;;3.01;100.00
2184;BME280;1098;48.940;8.962;2023-03-03T00:20:30;98743.63;;;2.75;100.00
2184;BME280;1098;48.940;8.962;2023-03-03T00:23:00;98743.28;;;2.79;100.00
2184;BME280;1098;48.940;8.962;2023-03-03T00:25:34;98738.94;;;3.25;100.00
2184;BME280;1098;48.940;8.962;2023-03-03T00:28:04;98742.34;;;3.10;100.00
2184;BME280;1098;48.940;8.962;2023-03-03T00:30:36;98742.34;;;3.10;100.00
2184;BME280;1098;48.940;8.962;2023-03-03T00:33:06;98751.97;;;2.72;100.00
2184;BME280;1098;48.940;8.962;2023-03-03T00:35:40;98735.25;;;2.87;100.00
2184;BME280;1098;48.940;8.962;2023-03-03T00:38:11;98739.59;;;2.80;100.00
2184;BME280;1098;48.940;8.962;2023-03-03T00:40:41;98747.44;;;2.81;100.00
2184;BME280;1098;48.940;8.962;2023-03-03T00:43:14;98742.94;;;2.82;100.00
2184;BME280;1098;48.940;8.962;2023-03-03T00:45:46;98743.38;;;3.01;100.00
2184;BME280;1098;48.940;8.962;2023-03-03T00:48:25;98745.94;;;2.79;100.00
2184;BME280;1098;48.940;8.962;2023-03-03T00:50:54;98738.13;;;3.16;100.00
2184;BME280;1098;48.940;8.962;2023-03-03T00:53:22;98739.13;;;2.76;100.00
2184;BME280;1098;48.940;8.962;2023-03-03T00:55:51;98730.78;;;2.79;100.00
2184;BME280;1098;48.940;8.962;2023-03-03T00:58:20;98738.28;;;2.75;100.00
2184;BME280;1098;48.940;8.962;2023-03-03T01:00:52;98738.63;;;2.72;100.00
2184;BME280;1098;48.940;8.962;2023-03-03T01:03:25;98735.81;;;2.66;100.00
2184;BME280;1098;48.940;8.962;2023-03-03T01:05:53;98730.44;;;2.74;100.00
2184;BME280;1098;48.940;8.962;2023-03-03T01:08:23;98725.38;;;2.95;100.00
2184;BME280;1098;48.940;8.962;2023-03-03T01:10:53;98724.81;;;2.69;100.00
2184;BME280;1098;48.940;8.962;2023-03-03T01:13:22;98725.09;;;2.82;100.00
2184;BME280;1098;48.940;8.962;2023-03-03T01:15:52;98727.44;;;2.77;100.00
2184;BME280;1098;48.940;8.962;2023-03-03T01:18:20;98724.72;;;2.93;100.00
2184;BME280;1098;48.940;8.962;2023-03-03T01:20:50;98726.34;;;3.33;100.00
2184;BME280;1098;48.940;8.962;2023-03-03T01:23:18;98739.34;;;3.44;100.00
2184;BME280;1098;48.940;8.962;2023-03-03T01:25:48;98734.56;;;2.93;100.00
2184;BME280;1098;48.940;8.962;2023-03-03T01:28:16;98734.38;;;2.94;100.00
2184;BME280;1098;48.940;8.962;2023-03-03T01:30:44;98746.19;;;1.88;100.00
2184;BME280;1098;48.940;8.962;2023-03-03T01:33:14;98748.69;;;1.89;100.00
2184;BME280;1098;48.940;8.962;2023-03-03T01:35:44;98744.72;;;2.01;100.00
2184;BME280;1098;48.940;8.962;2023-03-03T01:38:13;98746.53;;;1.93;100.00
2184;BME280;1098;48.940;8.962;2023-03-03T01:40:41;98744.56;;;2.03;100.00
2184;BME280;1098;48.940;8.962;2023-03-03T01:43:10;98737.31;;;2.68;100.00
2184;BME280;1098;48.940;8.962;2023-03-03T01:45:52;98743.06;;;2.25;100.00
2184;BME280;1098;48.940;8.962;2023-03-03T01:48:35;98735.06;;;2.17;100.00
2184;BME280;1098;48.940;8.962;2023-03-03T01:51:05;98729.06;;;2.23;100.00
2184;BME280;1098;48.940;8.962;2023-03-03T01:53:40;98725.56;;;1.98;100.00
2184;BME280;1098;48.940;8.962;2023-03-03T01:56:09;98722.56;;;2.01;100.00
2184;BME280;1098;48.940;8.962;2023-03-03T01:58:38;98719.41;;;1.65;100.00
2184;BME280;1098;48.940;8.962;2023-03-03T02:01:08;98713.72;;;1.68;100.00
2184;BME280;1098;48.940;8.962;2023-03-03T02:03:40;98710.56;;;1.64;100.00
2184;BME280;1098;48.940;8.962;2023-03-03T02:06:08;98710.38;;;1.42;100.00
2184;BME280;1098;48.940;8.962;2023-03-03T02:08:39;98711.88;;;1.44;100.00
2184;BME280;1098;48.940;8.962;2023-03-03T02:11:10;98710.72;;;1.71;100.00
2184;BME280;1098;48.940;8.962;2023-03-03T02:13:41;98712.41;;;1.96;100.00
2184;BME280;1098;48.940;8.962;2023-03-03T02:16:09;98717.56;;;1.82;100.00
2184;BME280;1098;48.940;8.962;2023-03-03T02:18:38;98712.22;;;1.90;100.00
2184;BME280;1098;48.940;8.962;2023-03-03T02:21:08;98716.06;;;1.79;100.00
2184;BME280;1098;48.940;8.962;2023-03-03T02:23:38;98715.91;;;1.97;100.00
2184;BME280;1098;48.940;8.962;2023-03-03T02:26:12;98711.59;;;2.04;100.00
2184;BME280;1098;48.940;8.962;2023-03-03T02:28:41;98709.41;;;2.16;100.00
2184;BME280;1098;48.940;8.962;2023-03-03T02:31:11;98711.19;;;2.39;100.00
2184;BME280;1098;48.940;8.962;2023-03-03T02:33:44;98718.91;;;2.02;100.00
2184;BME280;1098;48.940;8.962;2023-03-03T02:36:14;98714.53;;;2.33;100.00
2184;BME280;1098;48.940;8.962;2023-03-03T02:38:43;98715.16;;;2.60;100.00
2184;BME280;1098;48.940;8.962;2023-03-03T02:41:16;98719.06;;;2.08;100.00
2184;BME280;1098;48.940;8.962;2023-03-03T02:43:47;98729.22;;;1.89;100.00
2184;BME280;1098;48.940;8.962;2023-03-03T02:46:19;98726.72;;;1.79;100.00
2184;BME280;1098;48.940;8.962;2023-03-03T02:48:48;98716.88;;;1.88;100.00
2184;BME280;1098;48.940;8.962;2023-03-03T02:51:16;98728.69;;;1.69;100.00
2184;BME280;1098;48.940;8.962;2023-03-03T02:53:44;98728.69;;;1.69;100.00
2184;BME280;1098;48.940;8.962;2023-03-03T02:56:12;98727.03;;;2.33;100.00
2184;BME280;1098;48.940;8.962;2023-03-03T02:58:44;98726.53;;;2.37;100.00
2184;BME280;1098;48.940;8.962;2023-03-03T03:01:12;98726.56;;;1.81;100.00
2184;BME280;1098;48.940;8.962;2023-03-03T03:03:41;98725.56;;;1.82;100.00
2184;BME280;1098;48.940;8.962;2023-03-03T03:06:10;98729.19;;;1.56;100.00
2184;BME280;1098;48.940;8.962;2023-03-03T03:08:38;98729.53;;;1.69;100.00
2184;BME280;1098;48.940;8.962;2023-03-03T03:11:06;98723.53;;;1.59;100.00
2184;BME280;1098;48.940;8.962;2023-03-03T03:13:34;98721.75;;;1.84;100.00
2184;BME280;1098;48.940;8.962;2023-03-03T03:16:04;98724.53;;;1.66;100.00
2184;BME280;1098;48.940;8.962;2023-03-03T03:18:32;98720.72;;;1.69;100.00
2184;BME280;1098;48.940;8.962;2023-03-03T03:21:04;98728.69;;;1.53;100.00
2184;BME280;1098;48.940;8.962;2023-03-03T03:23:33;98734.16;;;1.51;100.00
2184;BME280;1098;48.940;8.962;2023-03-03T03:26:03;98735.22;;;1.83;100.00
2184;BME280;1098;48.940;8.962;2023-03-03T03:28:31;98731.53;;;2.32;100.00
2184;BME280;1098;48.940;8.962;2023-03-03T03:31:00;98734.22;;;2.00;100.00
2184;BME280;1098;48.940;8.962;2023-03-03T03:33:29;98729.06;;;1.66;100.00
2184;BME280;1098;48.940;8.962;2023-03-03T03:35:58;98727.19;;;2.48;100.00
2184;BME280;1098;48.940;8.962;2023-03-03T03:38:29;98726.72;;;2.28;100.00
2184;BME280;1098;48.940;8.962;2023-03-03T03:40:58;98725.00;;;2.59;100.00
2184;BME280;1098;48.940;8.962;2023-03-03T03:43:26;98727.47;;;2.69;100.00
2184;BME280;1098;48.940;8.962;2023-03-03T03:45:54;98733.69;;;2.37;100.00
2184;BME280;1098;48.940;8.962;2023-03-03T03:48:23;98738.34;;;1.70;100.00
2184;BME280;1098;48.940;8.962;2023-03-03T03:50:53;98739.22;;;1.95;100.00
2184;BME280;1098;48.940;8.962;2023-03-03T03:53:23;98734.13;;;1.35;100.00
2184;BME280;1098;48.940;8.962;2023-03-03T03:55:52;98739.09;;;1.30;100.00
2184;BME280;1098;48.940;8.962;2023-03-03T03:58:22;98729.00;;;1.50;100.00
2184;BME280;1098;48.940;8.962;2023-03-03T04:01:00;98727.66;;;1.46;100.00
2184;BME280;1098;48.940;8.962;2023-03-03T04:03:31;98726.56;;;1.81;100.00
2184;BME280;1098;48.940;8.962;2023-03-03T04:06:05;98729.22;;;1.72;100.00
2184;BME280;1098;48.940;8.962;2023-03-03T04:08:34;98729.56;;;1.78;100.00
2184;BME280;1098;48.940;8.962;2023-03-03T04:11:02;98730.81;;;1.33;100.00
2184;BME280;1098;48.940;8.962;2023-03-03T04:13:31;98734.13;;;1.35;100.00
2184;BME280;1098;48.940;8.962;2023-03-03T04:16:04;98739.53;;;2.08;100.00
2184;BME280;1098;48.940;8.962;2023-03-03T04:18:32;98732.84;;;1.55;100.00
2184;BME280;1098;48.940;8.962;2023-03-03T04:21:01;98731.56;;;1.76;100.00
2184;BME280;1098;48.940;8.962;2023-03-03T04:23:34;98738.44;;;2.74;100.00
2184;BME280;1098;48.940;8.962;2023-03-03T04:26:02;98740.53;;;1.58;100.00
2184;BME280;1098;48.940;8.962;2023-03-03T04:28:31;98739.97;;;1.47;100.00
2184;BME280;1098;48.940;8.962;2023-03-03T04:30:59;98740.25;;;1.19;100.00
2184;BME280;1098;48.940;8.962;2023-03-03T04:33:30;98745.84;;;1.08;100.00
2184;BME280;1098;48.940;8.962;2023-03-03T04:35:59;98750.06;;;0.85;100.00
2184;BME280;1098;48.940;8.962;2023-03-03T04:38:27;98743.75;;;1.28;100.00
2184;BME280;1098;48.940;8.962;2023-03-03T04:40:57;98751.59;;;1.29;100.00
2184;BME280;1098;48.940;8.962;2023-03-03T04:43:28;98749.59;;;1.31;100.00
2184;BME280;1098;48.940;8.962;2023-03-03T04:45:56;98744.88;;;2.32;100.00
2184;BME280;1098;48.940;8.962;2023-03-03T04:48:25;98743.03;;;2.41;100.00
2184;BME280;1098;48.940;8.962;2023-03-03T04:50:53;98742.53;;;2.37;100.00
2184;BME280;1098;48.940;8.962;2023-03-03T04:53:21;98755.47;;;2.73;100.00
2184;BME280;1098;48.940;8.962;2023-03-03T04:55:50;98753.66;;;2.65;100.00
2184;BME280;1098;48.940;8.962;2023-03-03T04:58:21;98751.19;;;2.48;100.00
2184;BME280;1098;48.940;8.962;2023-03-03T05:00:52;98756.38;;;2.49;100.00
2184;BME280;1098;48.940;8.962;2023-03-03T05:03:20;98753.34;;;2.52;100.00
2184;BME280;1098;48.940;8.962;2023-03-03T05:05:49;98744.78;;;2.73;100.00
2184;BME280;1098;48.940;8.962;2023-03-03T05:08:17;98745.72;;;2.25;100.00
2184;BME280;1098;48.940;8.962;2023-03-03T05:10:50;98756.50;;;2.64;100.00
2184;BME280;1098;48.940;8.962;2023-03-03T05:13:18;98757.56;;;2.22;100.00
2184;BME280;1098;48.940;8.962;2023-03-03T05:15:51;98744.31;;;2.69;100.00
2184;BME280;1098;48.940;8.962;2023-03-03T05:18:21;98748.16;;;2.59;100.00
2184;BME280;1098;48.940;8.962;2023-03-03T05:20:49;98749.44;;;2.79;100.00
2184;BME280;1098;48.940;8.962;2023-03-03T05:23:18;98752.63;;;2.83;100.00
2184;BME280;1098;48.940;8.962;2023-03-03T05:25:46;98744.59;;;2.91;100.00
2184;BME280;1098;48.940;8.962;2023-03-03T05:28:15;98755.06;;;2.92;100.00
2184;BME280;1098;48.940;8.962;2023-03-03T05:30:43;98756.78;;;2.77;100.00
2184;BME280;1098;48.940;8.962;2023-03-03T05:33:13;98763.16;;;2.68;100.00
2184;BME280;1098;48.940;8.962;2023-03-03T05:35:41;98767.56;;;3.39;100.00
2184;BME280;1098;48.940;8.962;2023-03-03T05:38:10;98777.09;;;3.72;100.00
2184;BME280;1098;48.940;8.962;2023-03-03T05:40:38;98779.28;;;3.69;100.00
2184;BME280;1098;48.940;8.962;2023-03-03T05:43:06;98784.13;;;2.87;100.00
2184;BME280;1098;48.940;8.962;2023-03-03T05:45:34;98789.41;;;3.03;100.00
2184;BME280;1098;48.940;8.962;2023-03-03T05:48:02;98786.84;;;2.55;100.00
2184;BME280;1098;48.940;8.962;2023-03-03T05:50:32;98786.16;;;2.53;100.00
2184;BME280;1098;48.940;8.962;2023-03-03T05:53:00;98785.25;;;3.40;100.00
2184;BME280;1098;48.940;8.962;2023-03-03T05:55:28;98780.19;;;3.14;100.00
2184;BME280;1098;48.940;8.962;2023-03-03T05:57:58;98784.91;;;3.43;100.00
2184;BME280;1098;48.940;8.962;2023-03-03T06:00:26;98790.00;;;3.92;100.00
2184;BME280;1098;48.940;8.962;2023-03-03T06:02:54;98786.72;;;3.82;100.00
2184;BME280;1098;48.940;8.962;2023-03-03T06:05:23;98793.59;;;3.45;100.00
2184;BME280;1098;48.940;8.962;2023-03-03T06:07:52;98803.28;;;3.38;100.00
2184;BME280;1098;48.940;8.962;2023-03-03T06:10:20;98797.38;;;4.12;100.00
2184;BME280;1098;48.940;8.962;2023-03-03T06:12:54;98806.16;;;3.67;100.00
2184;BME280;1098;48.940;8.962;2023-03-03T06:15:22;98811.50;;;3.67;100.00
2184;BME280;1098;48.940;8.962;2023-03-03T06:17:50;98811.19;;;3.62;100.00
2184;BME280;1098;48.940;8.962;2023-03-03T06:20:18;98804.34;;;3.29;100.00
2184;BME280;1098;48.940;8.962;2023-03-03T06:22:46;98804.84;;;3.32;100.00
2184;BME280;1098;48.940;8.962;2023-03-03T06:25:16;98813.53;;;3.65;100.00
2184;BME280;1098;48.940;8.962;2023-03-03T06:27:44;98815.47;;;4.02;100.00
2184;BME280;1098;48.940;8.962;2023-03-03T06:30:14;98813.97;;;3.46;100.00
2184;BME280;1098;48.940;8.962;2023-03-03T06:32:42;98824.31;;;3.41;100.00
2184;BME280;1098;48.940;8.962;2023-03-03T06:35:10;98820.91;;;3.55;100.00
2184;BME280;1098;48.940;8.962;2023-03-03T06:37:38;98822.53;;;3.95;100.00
2184;BME280;1098;48.940;8.962;2023-03-03T06:40:07;98825.34;;;4.25;100.00
2184;BME280;1098;48.940;8.962;2023-03-03T06:42:37;98837.34;;;3.36;100.00
2184;BME280;1098;48.940;8.962;2023-03-03T06:45:05;98824.16;;;3.42;100.00
2184;BME280;1098;48.940;8.962;2023-03-03T06:47:33;98833.72;;;3.68;100.00
2184;BME280;1098;48.940;8.962;2023-03-03T06:50:01;98828.31;;;3.76;100.00
2184;BME280;1098;48.940;8.962;2023-03-03T06:52:29;98829.00;;;4.01;100.00
2184;BME280;1098;48.940;8.962;2023-03-03T06:55:00;98833.00;;;4.05;100.00
2184;BME280;1098;48.940;8.962;2023-03-03T06:57:29;98841.84;;;3.74;100.00
2184;BME280;1098;48.940;8.962;2023-03-03T07:00:09;98847.56;;;3.71;100.00
2184;BME280;1098;48.940;8.962;2023-03-03T07:02:41;98836.50;;;4.05;100.00
2184;BME280;1098;48.940;8.962;2023-03-03T07:05:11;98839.31;;;4.12;100.00
2184;BME280;1098;48.940;8.962;2023-03-03T07:07:41;98847.06;;;4.30;100.00
2184;BME280;1098;48.940;8.962;2023-03-03T07:10:15;98852.75;;;4.49;100.00
2184;BME280;1098;48.940;8.962;2023-03-03T07:12:44;98841.00;;;4.13;100.00
2184;BME280;1098;48.940;8.962;2023-03-03T07:15:15;98852.09;;;4.47;100.00
2184;BME280;1098;48.940;8.962;2023-03-03T07:17:44;98849.59;;;4.83;100.00
2184;BME280;1098;48.940;8.962;2023-03-03T07:20:19;98847.22;;;4.05;100.00
2184;BME280;1098;48.940;8.962;2023-03-03T07:22:47;98847.16;;;4.13;100.00
2184;BME280;1098;48.940;8.962;2023-03-03T07:25:20;98854.91;;;4.54;100.00
2184;BME280;1098;48.940;8.962;2023-03-03T07:27:48;98851.88;;;4.57;100.00
2184;BME280;1098;48.940;8.962;2023-03-03T07:30:21;98858.63;;;4.45;100.00
2184;BME280;1098;48.940;8.962;2023-03-03T07:32:51;98856.91;;;4.29;100.00
2184;BME280;1098;48.940;8.962;2023-03-03T07:35:26;98853.38;;;4.74;100.00
2184;BME280;1098;48.940;8.962;2023-03-03T07:37:56;98852.28;;;4.46;100.00
2184;BME280;1098;48.940;8.962;2023-03-03T07:40:28;98869.72;;;4.79;100.00
2184;BME280;1098;48.940;8.962;2023-03-03T07:42:58;98866.47;;;5.07;100.00
2184;BME280;1098;48.940;8.962;2023-03-03T07:45:35;98879.31;;;5.70;100.00
2184;BME280;1098;48.940;8.962;2023-03-03T07:48:06;98874.72;;;5.49;100.00
2184;BME280;1098;48.940;8.962;2023-03-03T07:50:40;98873.97;;;5.41;100.00
2184;BME280;1098;48.940;8.962;2023-03-03T07:53:11;98889.59;;;4.62;100.00
2184;BME280;1098;48.940;8.962;2023-03-03T07:55:41;98893.00;;;4.02;100.00
2184;BME280;1098;48.940;8.962;2023-03-03T07:58:15;98884.16;;;4.33;100.00
2184;BME280;1098;48.940;8.962;2023-03-03T08:03:39;98899.47;;;4.62;100.00
2184;BME280;1098;48.940;8.962;2023-03-03T08:06:10;98891.41;;;4.47;100.00
2184;BME280;1098;48.940;8.962;2023-03-03T08:08:51;98889.53;;;4.93;100.00
2184;BME280;1098;48.940;8.962;2023-03-03T08:11:19;98883.81;;;5.84;100.00
2184;BME280;1098;48.940;8.962;2023-03-03T08:13:47;98888.91;;;6.09;100.00
2184;BME280;1098;48.940;8.962;2023-03-03T08:16:24;98884.38;;;6.09;100.00
2184;BME280;1098;48.940;8.962;2023-03-03T08:18:57;98885.63;;;5.92;100.00
2184;BME280;1098;48.940;8.962;2023-03-03T08:21:28;98899.41;;;5.60;100.00
2184;BME280;1098;48.940;8.962;2023-03-03T08:23:57;98891.69;;;6.15;100.00
2184;BME280;1098;48.940;8.962;2023-03-03T08:26:26;98892.47;;;5.95;100.00
2184;BME280;1098;48.940;8.962;2023-03-03T08:28:54;98885.25;;;5.80;100.00
2184;BME280;1098;48.940;8.962;2023-03-03T08:31:22;98885.81;;;5.91;100.00
2184;BME280;1098;48.940;8.962;2023-03-03T08:34:07;98889.84;;;5.86;100.00
2184;BME280;1098;48.940;8.962;2023-03-03T08:36:35;98888.25;;;6.07;100.00
2184;BME280;1098;48.940;8.962;2023-03-03T08:39:04;98889.66;;;5.44;100.00
2184;BME280;1098;48.940;8.962;2023-03-03T08:41:32;98886.50;;;6.14;100.00
2184;BME280;1098;48.940;8.962;2023-03-03T08:44:03;98880.34;;;5.99;100.00
2184;BME280;1098;48.940;8.962;2023-03-03T08:46:31;98889.03;;;5.27;100.00
2184;BME280;1098;48.940;8.962;2023-03-03T08:48:59;98888.25;;;6.07;100.00
2184;BME280;1098;48.940;8.962;2023-03-03T08:51:29;98889.28;;;6.06;100.00
2184;BME280;1098;48.940;8.962;2023-03-03T08:54:02;98893.75;;;6.35;100.00
2184;BME280;1098;48.940;8.962;2023-03-03T08:56:30;98896.84;;;6.17;100.00
2184;BME280;1098;48.940;8.962;2023-03-03T08:58:58;98902.75;;;4.95;100.00
2184;BME280;1098;48.940;8.962;2023-03-03T09:01:31;98909.84;;;5.02;100.00
2184;BME280;1098;48.940;8.962;2023-03-03T09:03:59;98910.03;;;5.53;100.00
2184;BME280;1098;48.940;8.962;2023-03-03T09:06:29;98914.88;;;5.20;100.00
2184;BME280;1098;48.940;8.962;2023-03-03T09:08:57;98911.84;;;6.47;100.00
2184;BME280;1098;48.940;8.962;2023-03-03T09:11:26;98930.09;;;5.57;100.00
2184;BME280;1098;48.940;8.962;2023-03-03T09:13:56;98919.00;;;5.90;100.00
2184;BME280;1098;48.940;8.962;2023-03-03T09:16:26;98920.91;;;6.10;100.00
2184;BME280;1098;48.940;8.962;2023-03-03T09:18:57;98920.00;;;6.03;100.00
2184;BME280;1098;48.940;8.962;2023-03-03T09:21:28;98924.53;;;5.73;100.00
2184;BME280;1098;48.940;8.962;2023-03-03T09:24:00;98932.00;;;6.22;100.00
2184;BME280;1098;48.940;8.962;2023-03-03T09:26:29;98930.25;;;5.70;100.00
2184;BME280;1098;48.940;8.962;2023-03-03T09:29:15;98931.31;;;6.35;100.00
2184;BME280;1098;48.940;8.962;2023-03-03T09:31:44;98929.88;;;5.88;100.00
2184;BME280;1098;48.940;8.962;2023-03-03T09:34:15;98925.28;;;6.69;100.00
2184;BME280;1098;48.940;8.962;2023-03-03T09:36:46;98921.16;;;6.30;100.00
2184;BME280;1098;48.940;8.962;2023-03-03T09:39:17;98918.56;;;7.29;100.00
2184;BME280;1098;48.940;8.962;2023-03-03T09:42:00;98921.50;;;7.34;100.00
2184;BME280;1098;48.940;8.962;2023-03-03T09:44:44;98915.69;;;6.24;100.00
2184;BME280;1098;48.940;8.962;2023-03-03T09:47:21;98918.59;;;7.98;100.00
2184;BME280;1098;48.940;8.962;2023-03-03T09:49:56;98919.97;;;6.75;100.00
2184;BME280;1098;48.940;8.962;2023-03-03T09:52:32;98931.34;;;7.48;100.00
2184;BME280;1098;48.940;8.962;2023-03-03T09:55:10;98926.94;;;7.68;100.00
2184;BME280;1098;48.940;8.962;2023-03-03T09:57:50;98925.97;;;7.82;100.00
2184;BME280;1098;48.940;8.962;2023-03-03T10:00:38;98937.00;;;6.82;100.00
2184;BME280;1098;48.940;8.962;2023-03-03T10:03:27;98928.91;;;7.25;100.00
2184;BME280;1098;48.940;8.962;2023-03-03T10:06:00;98927.25;;;7.86;100.00
2184;BME280;1098;48.940;8.962;2023-03-03T10:08:31;98928.16;;;7.38;100.00
2184;BME280;1098;48.940;8.962;2023-03-03T10:13:52;98932.63;;;9.08;100.00
2184;BME280;1098;48.940;8.962;2023-03-03T10:16:36;98933.09;;;7.06;100.00
2184;BME280;1098;48.940;8.962;2023-03-03T10:19:12;98926.44;;;7.92;100.00
2184;BME280;1098;48.940;8.962;2023-03-03T10:21:43;98918.91;;;8.90;100.00
2184;BME280;1098;48.940;8.962;2023-03-03T10:24:19;98931.56;;;7.53;100.00
2184;BME280;1098;48.940;8.962;2023-03-03T10:26:57;98918.44;;;8.73;100.00
2184;BME280;1098;48.940;8.962;2023-03-03T10:29:43;98924.22;;;8.57;100.00
2184;BME280;1098;48.940;8.962;2023-03-03T10:32:23;98925.66;;;7.64;100.00
2184;BME280;1098;48.940;8.962;2023-03-03T10:37:53;98919.91;;;8.15;100.00
2184;BME280;1098;48.940;8.962;2023-03-03T10:40:27;98928.81;;;7.74;100.00
2184;BME280;1098;48.940;8.962;2023-03-03T10:43:12;98929.59;;;8.03;100.00
2184;BME280;1098;48.940;8.962;2023-03-03T10:46:08;98925.91;;;8.65;100.00
2184;BME280;1098;48.940;8.962;2023-03-03T10:48:50;98926.63;;;8.32;100.00
2184;BME280;1098;48.940;8.962;2023-03-03T10:51:24;98923.38;;;8.43;100.00
2184;BME280;1098;48.940;8.962;2023-03-03T10:53:58;98924.28;;;8.22;100.00
2184;BME280;1098;48.940;8.962;2023-03-03T10:56:33;98928.84;;;7.81;100.00
2184;BME280;1098;48.940;8.962;2023-03-03T10:59:23;98926.16;;;8.83;100.00
2184;BME280;1098;48.940;8.962;2023-03-03T11:01:58;98927.53;;;8.59;100.00
2184;BME280;1098;48.940;8.962;2023-03-03T11:04:32;98927.66;;;8.31;100.00
2184;BME280;1098;48.940;8.962;2023-03-03T11:07:08;98925.31;;;8.76;100.00
2184;BME280;1098;48.940;8.962;2023-03-03T11:09:42;98923.06;;;8.86;100.00
2184;BME280;1098;48.940;8.962;2023-03-03T11:12:17;98921.38;;;8.85;100.00
2184;BME280;1098;48.940;8.962;2023-03-03T11:14:50;98921.16;;;9.59;100.00
2184;BME280;1098;48.940;8.962;2023-03-03T11:17:26;98936.94;;;9.62;100.00
2184;BME280;1098;48.940;8.962;2023-03-03T11:20:00;98933.66;;;9.53;100.00
2184;BME280;1098;48.940;8.962;2023-03-03T11:22:32;98936.13;;;8.89;100.00
2184;BME280;1098;48.940;8.962;2023-03-03T11:25:02;98935.09;;;9.43;100.00
2184;BME280;1098;48.940;8.962;2023-03-03T11:27:44;98928.47;;;9.25;100.00
2184;BME280;1098;48.940;8.962;2023-03-03T11:30:27;98934.19;;;9.95;100.00
2184;BME280;1098;48.940;8.962;2023-03-03T11:33:03;98929.56;;;10.09;100.00
2184;BME280;1098;48.940;8.962;2023-03-03T11:35:34;98916.84;;;10.29;100.00
2184;BME280;1098;48.940;8.962;2023-03-03T11:38:09;98912.78;;;10.51;100.00
2184;BME280;1098;48.940;8.962;2023-03-03T11:40:46;98911.00;;;10.39;100.00
2184;BME280;1098;48.940;8.962;2023-03-03T11:43:16;98908.66;;;10.42;100.00
2184;BME280;1098;48.940;8.962;2023-03-03T11:46:02;98914.03;;;10.55;100.00
2184;BME280;1098;48.940;8.962;2023-03-03T11:48:36;98896.44;;;10.78;100.00
2184;BME280;1098;48.940;8.962;2023-03-03T11:51:06;98907.63;;;9.79;100.00
2184;BME280;1098;48.940;8.962;2023-03-03T11:53:38;98888.78;;;10.30;98.52
2184;BME280;1098;48.940;8.962;2023-03-03T11:56:12;98899.38;;;9.74;100.00
2184;BME280;1098;48.940;8.962;2023-03-03T11:58:45;98900.13;;;9.94;96.03
2184;BME280;1098;48.940;8.962;2023-03-03T12:01:17;98897.84;;;9.91;96.61
2184;BME280;1098;48.940;8.962;2023-03-03T12:03:49;98888.88;;;10.55;100.00
2184;BME280;1098;48.940;8.962;2023-03-03T12:06:24;98890.13;;;10.52;95.04
2184;BME280;1098;48.940;8.962;2023-03-03T12:09:00;98891.69;;;9.64;100.00
2184;BME280;1098;48.940;8.962;2023-03-03T12:11:31;98886.56;;;10.14;98.47
2184;BME280;1098;48.940;8.962;2023-03-03T12:14:04;98879.41;;;10.71;97.62
2184;BME280;1098;48.940;8.962;2023-03-03T12:16:38;98886.34;;;9.51;99.42
2184;BME280;1098;48.940;8.962;2023-03-03T12:24:41;98873.03;;;10.90;94.02
2184;BME280;1098;48.940;8.962;2023-03-03T12:27:14;98883.22;;;9.54;100.00
2184;BME280;1098;48.940;8.962;2023-03-03T12:29:49;98874.53;;;10.10;100.00
2184;BME280;1098;48.940;8.962;2023-03-03T12:32:24;98870.41;;;10.00;100.00
2184;BME280;1098;48.940;8.962;2023-03-03T12:34:57;98864.91;;;10.27;95.37
2184;BME280;1098;48.940;8.962;2023-03-03T12:37:44;98864.78;;;10.02;100.00
2184;BME280;1098;48.940;8.962;2023-03-03T12:40:18;98857.38;;;10.98;95.54
2184;BME280;1098;48.940;8.962;2023-03-03T12:42:49;98860.25;;;9.96;98.58
2184;BME280;1098;48.940;8.962;2023-03-03T12:45:34;98864.31;;;10.18;100.00
2184;BME280;1098;48.940;8.962;2023-03-03T12:48:07;98867.34;;;9.84;100.00
2184;BME280;1098;48.940;8.962;2023-03-03T12:50:39;98852.94;;;10.10;100.00
2184;BME280;1098;48.940;8.962;2023-03-03T12:53:12;98854.47;;;9.86;99.38
2184;BME280;1098;48.940;8.962;2023-03-03T12:55:49;98854.81;;;10.03;97.40
2184;BME280;1098;48.940;8.962;2023-03-03T12:58:24;98849.31;;;11.60;93.81
2184;BME280;1098;48.940;8.962;2023-03-03T13:00:57;98853.34;;;10.51;90.52
2184;BME280;1098;48.940;8.962;2023-03-03T13:03:33;98857.34;;;11.23;86.42
2184;BME280;1098;48.940;8.962;2023-03-03T13:06:22;98864.25;;;10.38;97.25
2184;BME280;1098;48.940;8.962;2023-03-03T13:08:56;98864.69;;;10.35;96.07
2184;BME280;1098;48.940;8.962;2023-03-03T13:11:33;98862.44;;;11.13;95.26
2184;BME280;1098;48.940;8.962;2023-03-03T13:14:06;98854.16;;;10.58;95.01
2184;BME280;1098;48.940;8.962;2023-03-03T13:16:40;98851.03;;;11.11;92.15
2184;BME280;1098;48.940;8.962;2023-03-03T13:19:12;98862.84;;;11.17;90.91
2184;BME280;1098;48.940;8.962;2023-03-03T13:21:44;98848.44;;;12.02;92.36
2184;BME280;1098;48.940;8.962;2023-03-03T13:24:15;98850.31;;;12.02;82.03
2184;BME280;1098;48.940;8.962;2023-03-03T13:26:47;98848.13;;;11.92;89.24
2184;BME280;1098;48.940;8.962;2023-03-03T13:29:18;98840.50;;;11.64;79.40
2184;BME280;1098;48.940;8.962;2023-03-03T13:31:47;98847.38;;;10.74;88.61
2184;BME280;1098;48.940;8.962;2023-03-03T13:34:19;98847.09;;;10.57;93.77
2184;BME280;1098;48.940;8.962;2023-03-03T13:36:51;98825.69;;;10.56;94.16
2184;BME280;1098;48.940;8.962;2023-03-03T13:39:21;98840.69;;;10.45;92.88
2184;BME280;1098;48.940;8.962;2023-03-03T13:41:52;98844.38;;;10.82;89.97
2184;BME280;1098;48.940;8.962;2023-03-03T13:44:24;98841.41;;;10.65;86.10
2184;BME280;1098;48.940;8.962;2023-03-03T13:46:59;98842.66;;;11.38;83.93
2184;BME280;1098;48.940;8.962;2023-03-03T13:49:36;98839.91;;;10.70;90.52
2184;BME280;1098;48.940;8.962;2023-03-03T13:52:08;98833.25;;;12.01;86.58
2184;BME280;1098;48.940;8.962;2023-03-03T14:00:09;98834.72;;;10.99;88.82
2184;BME280;1098;48.940;8.962;2023-03-03T14:02:50;98827.94;;;11.52;84.26
2184;BME280;1098;48.940;8.962;2023-03-03T14:05:22;98824.09;;;10.98;90.42
2184;BME280;1098;48.940;8.962;2023-03-03T14:07:55;98821.88;;;11.13;89.75